Steptoe Valley North, Nevada Weather observations

Data are for 10 minute period ending at time listed.
 Day   Time   Solar   Ave.   Ave.  Ave.  Vector  Max.   Baro.   Total    
  of    of     Rad.   Air    Rel.  Wind   Wind   Wind  Press.  Precip.   
Year   Day            Temp.  Hum.  Speed  Dir.   Gust                    
2017   (PST)  Kw/m2    F      %     mph   deg.    mph    mb.     in.     
-------------------------------------------------------------------------
 176    2:00   0.00   45.4    53    3.5    49     5.3   825.9    0.00 
 176    2:10   0.00   45.5    52    3.3    50     3.9   825.9    0.00 
 176    2:20   0.00   45.1    54    1.9    61     3.5   825.9    0.00 
 176    2:30   0.00   44.3    57    2.8    59     4.1   826.0    0.00 
 176    2:40   0.00   44.0    53    3.6    66     4.7   826.0    0.00 
 176    2:50   0.00   43.7    54    4.5    54     6.4   826.0    0.00 
 176    3:00   0.00   43.8    50    5.4    55     6.5   826.1    0.00 
 176    3:10   0.00   43.5    52    5.2    50     6.3   826.0    0.00 
 176    3:20   0.00   43.3    52    5.2    56     6.8   826.0    0.00 
 176    3:30   0.00   43.5    51    4.4    61     5.3   826.1    0.00 
 176    3:40   0.00   43.5    50    5.1    54     7.0   826.1    0.00 
 176    3:50   0.00   44.1    49    6.5    45     8.2   826.2    0.00 
 176    4:00   0.00   44.8    50    6.2    45     7.0   826.2    0.00 
 176    4:10   0.00   45.0    49    6.4    47     8.3   826.3    0.00 
 176    4:20   0.01   45.7    48    6.3    52     7.1   826.3    0.00 
 176    4:30   0.03   46.6    45    6.0    58     6.9   826.3    0.00 
 176    4:40   0.06   46.5    48    4.1    45     5.8   826.4    0.00 
 176    4:50   0.08   45.7    53    2.1   353     3.9   826.5    0.00 
 176    5:00   0.10   45.7    59    2.6   352     3.6   826.5    0.00 
 176    5:10   0.13   46.2    62    6.1     6     7.6   826.4    0.00 
 176    5:20   0.16   51.2    48    8.1    19     9.9   826.4    0.00 
 176    5:30   0.19   54.5    42    4.6    45     7.2   826.5    0.00 
 176    5:40   0.22   56.9    39    2.6    42     4.9   826.6    0.00 
 176    5:50   0.26   58.3    42    6.4    11     8.1   826.6    0.00 
 176    6:00   0.29   59.7    40    7.1     5     8.8   826.7    0.00 
 176    6:10   0.33   60.9    38    6.3     3     8.0   826.8    0.00 
 176    6:20   0.36   62.9    40    1.3   333     4.5   827.0    0.00 
 176    6:30   0.40   65.2    32    1.4   259     3.9   827.1    0.00 
 176    6:40   0.43   64.5    33    1.7   284     3.3   827.2    0.00 
 176    6:50   0.47   66.2    30    0.9   284     2.9   827.2    0.00 
 176    7:00   0.51   67.4    28    2.1   306     3.3   827.2    0.00 
 176    7:10   0.54   68.5    30    2.8   326     3.9   827.2    0.00 
 176    7:20   0.57   69.8    30    3.1   337     4.0   827.2    0.00 
 176    7:30   0.61   71.0    29    4.0   332     5.0   827.2    0.00 
 176    7:40   0.64   72.1    28    4.6   332     6.5   827.1    0.00 
 176    7:50   0.67   73.2    28    4.6   339     7.7   827.0    0.00 
 176    8:00   0.69   74.6    24    4.8     1     7.7   826.9    0.00 
 176    8:10   0.72   75.6    24    4.6   334     7.6   826.8    0.00 
 176    8:20   0.74   76.3    24    4.1   339     6.1   826.7    0.00 
 176    8:30   0.76   78.0    21    3.2    92     6.3   826.7    0.00 
 176    8:40   0.78   78.8    17    4.9    66    10.1   826.6    0.00 
 176    8:50   0.80   78.6    20    7.3    52    12.3   826.5    0.00 
 176    9:00   0.83   78.7    18    6.0    31     9.7   826.4    0.00 
 176    9:10   0.85   79.2    20    6.7    31    15.6   826.3    0.00 
 176    9:20   0.87   80.3    18    7.4    80    15.1   826.3    0.00 
 176    9:30   0.89   80.3    18    7.1    60    13.4   826.3    0.00 
 176    9:40   0.91   80.7    18    6.8    60    11.6   826.2    0.00 
 176    9:50   0.93   80.7    20    7.5    39    12.3   826.1    0.00 
 176   10:00   0.94   81.1    19    9.0    59    14.8   826.0    0.00 
 176   10:10   0.95   81.8    16    6.9    66    12.3   826.0    0.00 
 176   10:20   0.96   82.1    16    6.6    68    13.1   826.0    0.00 
 176   10:30   0.97   83.5    14    6.2   131    11.4   826.0    0.00 
 176   10:40   0.98   85.9    13    3.5   177    10.0   825.9    0.00 
 176   10:50   0.98   85.8    13    2.9    80     9.3   825.8    0.00 
 176   11:00   0.99   84.4    15    1.4     4     4.7   825.7    0.00 
 176   11:10   0.99   85.0    15    4.1   272    11.1   825.6    0.00 
 176   11:20   1.00   86.0    12    6.5   218    12.9   825.5    0.00 
 176   11:30   1.00   84.6    16    4.8   297     9.8   825.4    0.00 
 176   11:40   1.00   84.4    13    6.2   268    13.4   825.3    0.00 
 176   11:50   1.00   85.9    13    5.0   246    10.4   825.3    0.00 
 176   12:00   1.00   84.4    15    5.3   319    11.9   825.2    0.00 
 176   12:10   0.99   84.8    17    4.8   349     8.2   825.1    0.00 
 176   12:20   0.99   85.0    18    4.0   292     9.6   825.1    0.00 
 176   12:30   0.98   87.4    11    5.7   229    12.1   824.9    0.00 
 176   12:40   0.97   87.7    12    5.2   103     9.3   824.8    0.00 
 176   12:50   0.97   86.1    13    3.5     3     7.7   824.7    0.00 
 176   13:00   1.01   87.2    13    3.6   286    17.0   824.7    0.00 
 176   13:10   0.95   89.4    11    4.8   224    13.1   824.6    0.00 
 176   13:20   0.93   89.9    11    3.4   231     8.6   824.5    0.00 
 176   13:30   0.83   88.4    12    5.6   272    11.3   824.4    0.00 
 176   13:40   0.90   87.0    12    4.7   330     7.7   824.2    0.00 
 176   13:50   0.88   88.2    12    3.2    87     6.4   824.1    0.00 
 176   14:00   0.87   90.0    10    5.0   173    11.1   824.1    0.00 
 176   14:10   0.84   90.0    11    3.3   269    11.2   824.0    0.00 
 176   14:20   0.82   91.1    10    3.8   158    10.1   824.0    0.00 
 176   14:30   0.78   89.6    11    3.5    57     6.9   824.0    0.00 
 176   14:40   0.79   89.6    11    6.3    80    12.1   823.9    0.00 
 176   14:50   0.50   88.5    12    9.2    73    16.7   823.8    0.00 
 176   15:00   0.73   88.2    13   11.1    84    20.8   823.7    0.00 
 176   15:10   0.70   87.6    14   13.2    56    20.0   823.5    0.00 
 176   15:20   0.68   87.7    13   12.6    67    19.0   823.4    0.00 
 176   15:30   0.61   87.5    13   12.6    64    19.1   823.4    0.00 
 176   15:40   0.55   86.9    14   13.6    66    22.8   823.3    0.00 
 176   15:50   0.40   86.4    14   14.0    67    21.4   823.1    0.00 
 176   16:00   0.40   85.3    14   10.5    73    18.1   823.1    0.00 
 176   16:10   0.50   86.8    15    7.2    83    11.8   823.1    0.00 
 176   16:20   0.32   86.6    13    8.1   186    19.1   823.2    0.00 
 176   16:30   0.23   86.0    13    5.6    81     9.9   823.1    0.00 
 176   16:40   0.14   82.7    18    5.8    85     9.3   823.1    0.00 
 176   16:50   0.12   81.1    18    7.9    87    13.4   823.3    0.00 
 176   17:00   0.09   81.9    16    8.4    85    12.6   823.4    0.00 
 176   17:10   0.08   82.0    15    9.9    89    20.2   823.5    0.00 
 176   17:20   0.10   82.1    15   12.2   162    26.4   823.6    0.00 
 176   17:30   0.11   82.4    14   13.3   165    19.5   823.7    0.00 
 176   17:40   0.10   82.1    14   12.9   168    23.2   823.8    0.00 
 176   17:50   0.07   81.3    16    7.3   166    12.4   823.8    0.00 
 176   18:00   0.06   81.2    15    5.3   217    10.3   823.7    0.00 
 176   18:10   0.04   82.0    14    4.2   263     8.2   823.8    0.00 
 176   18:20   0.03   79.5    18    6.7    54    14.8   823.8    0.00 
 176   18:30   0.02   78.5    17    7.9    59    15.0   823.9    0.00 
 176   18:40   0.02   77.8    16    8.3    84    11.2   823.9    0.00 
 176   18:50   0.01   77.2    16    8.6    75    13.5   823.8    0.00 
 176   19:00   0.01   76.6    16    7.4    76    11.8   824.0    0.00 
 176   19:10   0.01   74.6    19    5.7    72     7.9   824.0    0.00 
 176   19:20   0.00   73.9    19    6.2    86     8.0   824.1    0.00 
 176   19:30   0.00   73.4    21    6.2    74     8.4   824.2    0.00 
 176   19:40   0.00   69.1    33    5.9    44     7.4   824.4    0.00 
 176   19:50   0.00   68.4    32    6.4    44     8.3   824.5    0.00 
 176   20:00   0.00   70.0    26    6.6    60     8.6   824.6    0.00 
 176   20:10   0.00   69.2    28    6.3    55     7.7   824.6    0.00 
 176   20:20   0.00   65.6    37    5.4    42     5.9   824.7    0.00 
 176   20:30   0.00   63.5    40    5.4    42     6.9   824.7    0.00 
 176   20:40   0.00   61.9    41    6.0    53     7.2   824.7    0.00 
 176   20:50   0.00   63.0    37    6.5    51     7.8   824.7    0.00 
 176   21:00   0.00   61.9    37    7.2    50     8.8   824.6    0.00 
 176   21:10   0.00   63.9    32    7.6    62     9.2   824.6    0.00 
 176   21:20   0.00   64.3    31    7.6    68     9.5   824.6    0.00 
 176   21:30   0.00   66.6    26    7.1    80     9.0   824.6    0.00 
 176   21:40   0.00   67.7    23    6.8    84     8.6   824.6    0.00 
 176   21:50   0.00   65.4    28    3.2    75     6.9   824.6    0.00 
 176   22:00   0.00   63.1    32    2.2    78     5.4   824.6    0.00 
 176   22:10   0.00   61.6    33    2.6    90     5.3   824.6    0.00 
 176   22:20   0.00   60.8    36    3.8   116     4.5   824.5    0.00 
 176   22:30   0.00   58.8    43    2.8   108     3.9   824.5    0.00 
 176   22:40   0.00   57.2    53    0.3    56     2.1   824.4    0.00 
 176   22:50   0.00   55.4    54    0.9    70     2.7   824.3    0.00 
 176   23:00   0.00   57.7    44    1.3    92     4.5   824.3    0.00 
 176   23:10   0.00   55.6    56    3.0     6     5.9   824.3    0.00 
 176   23:20   0.00   53.9    62    1.9    11     3.9   824.3    0.00 
 176   23:30   0.00   54.6    59    3.7    23     5.5   824.2    0.00 
 176   23:40   0.00   54.5    51    1.6    33     3.5   824.2    0.00 
 176   23:50   0.00   54.3    50    2.5   102     3.7   824.2    0.00 
 177    0:00   0.00   53.6    57    0.9    55     4.5   824.0    0.00 
 177    0:10   0.00   52.8    58    1.6    55     4.3   824.0    0.00 
 177    0:20   0.00   50.1    58    2.7   196     5.6   824.0    0.00 
 177    0:30   0.00   49.3    63    2.9   296     4.8   823.9    0.00 
 177    0:40   0.00   49.5    49    2.9   270     4.3   823.9    0.00 
 177    0:50   0.00   51.4    46    1.8   303     2.9   823.8    0.00 
 177    1:00   0.00   50.4    54    2.9   183     5.0   823.8    0.00 
 177    1:10   0.00   48.1    64    4.2   173     5.4   823.8    0.00 
 177    1:20   0.00   48.5    57    0.8   180     3.3   823.8    0.00 
 177    1:30   0.00   49.5    50    2.5   186     4.2   823.8    0.00 
 177    1:40   0.00   48.9    57    2.7   161     3.6   823.8    0.00 
 177    1:50   0.00   51.4    45    1.5    98     3.3   823.8    0.00 

Return to Steptoe Valley North graphs page.


Western Regional Climate Center,wrcc@dri.edu